sensor_id;sensor_type;location;lat;lon;timestamp;temperature;humidity
75088;HTU21D;63664;44.868;40.600;2023-03-01T00:01:51;4.49;90.17
75088;HTU21D;63664;44.868;40.600;2023-03-01T00:04:18;4.48;90.15
75088;HTU21D;63664;44.868;40.600;2023-03-01T00:06:47;4.48;90.08
75088;HTU21D;63664;44.868;40.600;2023-03-01T00:09:14;4.43;90.03
75088;HTU21D;63664;44.868;40.600;2023-03-01T00:11:43;4.45;90.03
75088;HTU21D;63664;44.868;40.600;2023-03-01T00:14:13;4.43;90.02
75088;HTU21D;63664;44.868;40.600;2023-03-01T00:16:44;4.42;90.30
75088;HTU21D;63664;44.868;40.600;2023-03-01T00:19:19;4.37;90.29
75088;HTU21D;63664;44.868;40.600;2023-03-01T00:21:51;4.33;90.50
75088;HTU21D;63664;44.868;40.600;2023-03-01T00:24:17;4.26;90.34
75088;HTU21D;63664;44.868;40.600;2023-03-01T00:26:46;4.22;90.73
75088;HTU21D;63664;44.868;40.600;2023-03-01T00:29:12;4.17;90.63
75088;HTU21D;63664;44.868;40.600;2023-03-01T00:31:39;4.20;90.46
75088;HTU21D;63664;44.868;40.600;2023-03-01T00:34:12;4.22;90.40
75088;HTU21D;63664;44.868;40.600;2023-03-01T00:36:38;4.21;90.33
75088;HTU21D;63664;44.868;40.600;2023-03-01T00:39:11;4.22;90.28
75088;HTU21D;63664;44.868;40.600;2023-03-01T00:41:38;4.22;90.31
75088;HTU21D;63664;44.868;40.600;2023-03-01T00:44:09;4.21;90.23
75088;HTU21D;63664;44.868;40.600;2023-03-01T00:46:35;4.22;90.21
75088;HTU21D;63664;44.868;40.600;2023-03-01T00:49:04;4.26;90.18
75088;HTU21D;63664;44.868;40.600;2023-03-01T00:51:31;4.26;90.29
75088;HTU21D;63664;44.868;40.600;2023-03-01T00:54:01;4.18;90.26
75088;HTU21D;63664;44.868;40.600;2023-03-01T00:56:30;4.17;90.31
75088;HTU21D;63664;44.868;40.600;2023-03-01T00:59:00;4.16;90.39
75088;HTU21D;63664;44.868;40.600;2023-03-01T01:01:28;4.15;90.31
75088;HTU21D;63664;44.868;40.600;2023-03-01T01:04:08;4.16;90.30
75088;HTU21D;63664;44.868;40.600;2023-03-01T01:06:46;4.15;90.25
75088;HTU21D;63664;44.868;40.600;2023-03-01T01:09:16;4.13;90.57
75088;HTU21D;63664;44.868;40.600;2023-03-01T01:11:45;4.05;90.66
75088;HTU21D;63664;44.868;40.600;2023-03-01T01:14:15;4.05;90.76
75088;HTU21D;63664;44.868;40.600;2023-03-01T01:16:42;4.01;91.02
75088;HTU21D;63664;44.868;40.600;2023-03-01T01:19:10;3.99;90.83
75088;HTU21D;63664;44.868;40.600;2023-03-01T01:21:39;3.99;90.71
75088;HTU21D;63664;44.868;40.600;2023-03-01T01:24:09;4.03;90.57
75088;HTU21D;63664;44.868;40.600;2023-03-01T01:26:36;4.04;90.53
75088;HTU21D;63664;44.868;40.600;2023-03-01T01:29:05;4.02;90.52
75088;HTU21D;63664;44.868;40.600;2023-03-01T01:31:33;4.02;90.50
75088;HTU21D;63664;44.868;40.600;2023-03-01T01:34:02;4.01;90.54
75088;HTU21D;63664;44.868;40.600;2023-03-01T01:36:31;4.00;90.48
75088;HTU21D;63664;44.868;40.600;2023-03-01T01:39:00;3.97;90.60
75088;HTU21D;63664;44.868;40.600;2023-03-01T01:41:29;3.95;90.57
75088;HTU21D;63664;44.868;40.600;2023-03-01T01:46:49;4.02;90.44
75088;HTU21D;63664;44.868;40.600;2023-03-01T01:49:48;4.03;90.41
75088;HTU21D;63664;44.868;40.600;2023-03-01T01:52:25;4.01;90.33
75088;HTU21D;63664;44.868;40.600;2023-03-01T01:57:26;3.98;90.39
75088;HTU21D;63664;44.868;40.600;2023-03-01T01:59:57;3.95;90.43
75088;HTU21D;63664;44.868;40.600;2023-03-01T02:02:26;3.93;90.46
75088;HTU21D;63664;44.868;40.600;2023-03-01T02:05:00;3.93;90.62
75088;HTU21D;63664;44.868;40.600;2023-03-01T02:07:30;3.88;90.41
75088;HTU21D;63664;44.868;40.600;2023-03-01T02:09:56;3.85;90.49
75088;HTU21D;63664;44.868;40.600;2023-03-01T02:12:24;3.87;90.65
75088;HTU21D;63664;44.868;40.600;2023-03-01T02:14:51;3.87;90.51
75088;HTU21D;63664;44.868;40.600;2023-03-01T02:17:18;3.89;90.43
75088;HTU21D;63664;44.868;40.600;2023-03-01T02:22:34;3.92;90.44
75088;HTU21D;63664;44.868;40.600;2023-03-01T02:25:27;3.94;90.44
75088;HTU21D;63664;44.868;40.600;2023-03-01T02:30:48;3.95;90.38
75088;HTU21D;63664;44.868;40.600;2023-03-01T02:33:36;3.92;90.37
75088;HTU21D;63664;44.868;40.600;2023-03-01T02:36:26;3.89;90.64
75088;HTU21D;63664;44.868;40.600;2023-03-01T02:38:58;3.89;90.60
75088;HTU21D;63664;44.868;40.600;2023-03-01T02:41:27;3.85;90.62
75088;HTU21D;63664;44.868;40.600;2023-03-01T02:43:56;3.88;90.50
75088;HTU21D;63664;44.868;40.600;2023-03-01T02:46:24;3.89;90.44
75088;HTU21D;63664;44.868;40.600;2023-03-01T02:48:54;3.88;90.48
75088;HTU21D;63664;44.868;40.600;2023-03-01T02:51:52;3.88;90.49
75088;HTU21D;63664;44.868;40.600;2023-03-01T02:54:19;3.87;90.43
75088;HTU21D;63664;44.868;40.600;2023-03-01T02:56:49;3.85;90.53
75088;HTU21D;63664;44.868;40.600;2023-03-01T02:59:20;3.82;90.76
75088;HTU21D;63664;44.868;40.600;2023-03-01T03:01:52;3.83;90.63
75088;HTU21D;63664;44.868;40.600;2023-03-01T03:04:22;3.83;90.50
75088;HTU21D;63664;44.868;40.600;2023-03-01T03:06:51;3.85;90.49
75088;HTU21D;63664;44.868;40.600;2023-03-01T03:09:22;3.85;90.49
75088;HTU21D;63664;44.868;40.600;2023-03-01T03:11:49;3.84;90.48
75088;HTU21D;63664;44.868;40.600;2023-03-01T03:14:16;3.83;90.62
75088;HTU21D;63664;44.868;40.600;2023-03-01T03:16:50;3.84;90.60
75088;HTU21D;63664;44.868;40.600;2023-03-01T03:19:17;3.84;90.57
75088;HTU21D;63664;44.868;40.600;2023-03-01T03:21:46;3.82;90.61
75088;HTU21D;63664;44.868;40.600;2023-03-01T03:24:15;3.80;90.66
75088;HTU21D;63664;44.868;40.600;2023-03-01T03:26:41;3.83;90.68
75088;HTU21D;63664;44.868;40.600;2023-03-01T03:29:10;3.83;90.52
75088;HTU21D;63664;44.868;40.600;2023-03-01T03:31:36;3.84;90.49
75088;HTU21D;63664;44.868;40.600;2023-03-01T03:34:05;3.83;90.60
75088;HTU21D;63664;44.868;40.600;2023-03-01T03:36:31;3.80;90.50
75088;HTU21D;63664;44.868;40.600;2023-03-01T03:38:57;3.80;90.52
75088;HTU21D;63664;44.868;40.600;2023-03-01T03:41:24;3.79;90.47
75088;HTU21D;63664;44.868;40.600;2023-03-01T03:43:50;3.83;90.40
75088;HTU21D;63664;44.868;40.600;2023-03-01T03:46:19;3.85;90.35
75088;HTU21D;63664;44.868;40.600;2023-03-01T03:48:45;3.85;90.29
75088;HTU21D;63664;44.868;40.600;2023-03-01T03:51:18;3.78;90.44
75088;HTU21D;63664;44.868;40.600;2023-03-01T03:53:45;3.77;90.47
75088;HTU21D;63664;44.868;40.600;2023-03-01T03:56:14;3.75;90.42
75088;HTU21D;63664;44.868;40.600;2023-03-01T03:58:40;3.76;90.37
75088;HTU21D;63664;44.868;40.600;2023-03-01T04:01:09;3.77;90.30
75088;HTU21D;63664;44.868;40.600;2023-03-01T04:03:39;3.75;90.29
75088;HTU21D;63664;44.868;40.600;2023-03-01T04:06:14;3.76;90.26
75088;HTU21D;63664;44.868;40.600;2023-03-01T04:08:43;3.75;90.36
75088;HTU21D;63664;44.868;40.600;2023-03-01T04:11:09;3.73;90.32
75088;HTU21D;63664;44.868;40.600;2023-03-01T04:13:56;3.73;90.27
75088;HTU21D;63664;44.868;40.600;2023-03-01T04:16:23;3.77;90.23
75088;HTU21D;63664;44.868;40.600;2023-03-01T04:18:54;3.78;90.17
75088;HTU21D;63664;44.868;40.600;2023-03-01T04:21:22;3.80;90.17
75088;HTU21D;63664;44.868;40.600;2023-03-01T04:23:49;3.80;90.13
75088;HTU21D;63664;44.868;40.600;2023-03-01T04:26:19;3.82;90.11
75088;HTU21D;63664;44.868;40.600;2023-03-01T04:28:48;3.83;90.11
75088;HTU21D;63664;44.868;40.600;2023-03-01T04:31:19;3.83;90.28
75088;HTU21D;63664;44.868;40.600;2023-03-01T04:33:52;3.77;90.05
75088;HTU21D;63664;44.868;40.600;2023-03-01T04:36:23;3.75;90.20
75088;HTU21D;63664;44.868;40.600;2023-03-01T04:38:50;3.73;90.27
75088;HTU21D;63664;44.868;40.600;2023-03-01T04:41:19;3.73;90.29
75088;HTU21D;63664;44.868;40.600;2023-03-01T04:43:45;3.73;90.27
75088;HTU21D;63664;44.868;40.600;2023-03-01T04:46:15;3.76;90.28
75088;HTU21D;63664;44.868;40.600;2023-03-01T04:48:43;3.76;90.26
75088;HTU21D;63664;44.868;40.600;2023-03-01T04:51:11;3.78;90.37
75088;HTU21D;63664;44.868;40.600;2023-03-01T04:53:43;3.77;90.35
75088;HTU21D;63664;44.868;40.600;2023-03-01T04:56:12;3.77;90.04
75088;HTU21D;63664;44.868;40.600;2023-03-01T04:58:43;3.76;90.05
75088;HTU21D;63664;44.868;40.600;2023-03-01T05:01:17;3.79;90.12
75088;HTU21D;63664;44.868;40.600;2023-03-01T05:03:51;3.79;90.21
75088;HTU21D;63664;44.868;40.600;2023-03-01T05:06:18;3.79;90.15
75088;HTU21D;63664;44.868;40.600;2023-03-01T05:08:45;3.78;90.04
75088;HTU21D;63664;44.868;40.600;2023-03-01T05:11:11;3.78;90.04
75088;HTU21D;63664;44.868;40.600;2023-03-01T05:13:38;3.82;90.01
75088;HTU21D;63664;44.868;40.600;2023-03-01T05:16:09;3.84;89.99
75088;HTU21D;63664;44.868;40.600;2023-03-01T05:18:39;3.86;89.96
75088;HTU21D;63664;44.868;40.600;2023-03-01T05:21:13;3.86;90.11
75088;HTU21D;63664;44.868;40.600;2023-03-01T05:23:42;3.85;90.15
75088;HTU21D;63664;44.868;40.600;2023-03-01T05:26:11;3.85;90.09
75088;HTU21D;63664;44.868;40.600;2023-03-01T05:28:38;3.88;90.07
75088;HTU21D;63664;44.868;40.600;2023-03-01T05:31:07;3.91;89.99
75088;HTU21D;63664;44.868;40.600;2023-03-01T05:33:41;3.94;89.95
75088;HTU21D;63664;44.868;40.600;2023-03-01T05:36:09;3.98;89.89
75088;HTU21D;63664;44.868;40.600;2023-03-01T05:38:36;3.95;89.96
75088;HTU21D;63664;44.868;40.600;2023-03-01T05:41:05;3.93;90.05
75088;HTU21D;63664;44.868;40.600;2023-03-01T05:43:31;3.95;89.98
75088;HTU21D;63664;44.868;40.600;2023-03-01T05:46:01;3.94;90.02
75088;HTU21D;63664;44.868;40.600;2023-03-01T05:48:27;3.92;90.19
75088;HTU21D;63664;44.868;40.600;2023-03-01T05:51:00;3.92;90.12
75088;HTU21D;63664;44.868;40.600;2023-03-01T05:53:26;3.94;90.02
75088;HTU21D;63664;44.868;40.600;2023-03-01T05:55:58;4.00;89.92
75088;HTU21D;63664;44.868;40.600;2023-03-01T05:58:26;4.03;89.79
75088;HTU21D;63664;44.868;40.600;2023-03-01T06:00:53;4.06;89.77
75088;HTU21D;63664;44.868;40.600;2023-03-01T06:03:25;4.05;89.78
75088;HTU21D;63664;44.868;40.600;2023-03-01T06:05:59;4.10;89.74
75088;HTU21D;63664;44.868;40.600;2023-03-01T06:08:25;4.09;89.73
75088;HTU21D;63664;44.868;40.600;2023-03-01T06:10:52;4.12;89.64
75088;HTU21D;63664;44.868;40.600;2023-03-01T06:13:19;4.17;89.57
75088;HTU21D;63664;44.868;40.600;2023-03-01T06:15:45;4.22;89.50
75088;HTU21D;63664;44.868;40.600;2023-03-01T06:18:12;4.26;89.40
75088;HTU21D;63664;44.868;40.600;2023-03-01T06:20:38;4.27;89.37
75088;HTU21D;63664;44.868;40.600;2023-03-01T06:23:04;4.27;89.36
75088;HTU21D;63664;44.868;40.600;2023-03-01T06:25:32;4.27;89.30
75088;HTU21D;63664;44.868;40.600;2023-03-01T06:27:59;4.32;89.23
75088;HTU21D;63664;44.868;40.600;2023-03-01T06:30:26;4.32;89.18
75088;HTU21D;63664;44.868;40.600;2023-03-01T06:32:56;4.33;89.17
75088;HTU21D;63664;44.868;40.600;2023-03-01T06:35:30;4.33;89.09
75088;HTU21D;63664;44.868;40.600;2023-03-01T06:37:58;4.39;89.03
75088;HTU21D;63664;44.868;40.600;2023-03-01T06:40:27;4.45;88.88
75088;HTU21D;63664;44.868;40.600;2023-03-01T06:42:54;4.47;88.78
75088;HTU21D;63664;44.868;40.600;2023-03-01T06:45:21;4.50;88.69
75088;HTU21D;63664;44.868;40.600;2023-03-01T06:47:47;4.54;88.67
75088;HTU21D;63664;44.868;40.600;2023-03-01T06:50:18;4.59;88.56
75088;HTU21D;63664;44.868;40.600;2023-03-01T06:52:44;4.64;88.44
75088;HTU21D;63664;44.868;40.600;2023-03-01T06:55:18;4.69;88.31
75088;HTU21D;63664;44.868;40.600;2023-03-01T06:57:45;4.78;88.23
75088;HTU21D;63664;44.868;40.600;2023-03-01T07:00:12;4.83;88.09
75088;HTU21D;63664;44.868;40.600;2023-03-01T07:02:41;4.89;87.91
75088;HTU21D;63664;44.868;40.600;2023-03-01T07:05:07;4.92;87.86
75088;HTU21D;63664;44.868;40.600;2023-03-01T07:07:33;4.95;87.83
75088;HTU21D;63664;44.868;40.600;2023-03-01T07:10:00;5.00;87.74
75088;HTU21D;63664;44.868;40.600;2023-03-01T07:12:26;5.05;87.62
75088;HTU21D;63664;44.868;40.600;2023-03-01T07:14:55;5.07;87.48
75088;HTU21D;63664;44.868;40.600;2023-03-01T07:17:21;5.05;87.46
75088;HTU21D;63664;44.868;40.600;2023-03-01T07:19:53;5.05;87.45
75088;HTU21D;63664;44.868;40.600;2023-03-01T07:22:19;5.13;87.39
75088;HTU21D;63664;44.868;40.600;2023-03-01T07:24:47;5.16;87.21
75088;HTU21D;63664;44.868;40.600;2023-03-01T07:27:14;5.18;87.10
75088;HTU21D;63664;44.868;40.600;2023-03-01T07:29:40;5.25;87.00
75088;HTU21D;63664;44.868;40.600;2023-03-01T07:32:07;5.34;86.78
75088;HTU21D;63664;44.868;40.600;2023-03-01T07:34:33;5.39;86.65
75088;HTU21D;63664;44.868;40.600;2023-03-01T07:36:59;5.42;86.42
75088;HTU21D;63664;44.868;40.600;2023-03-01T07:39:25;5.47;86.41
75088;HTU21D;63664;44.868;40.600;2023-03-01T07:41:52;5.52;86.32
75088;HTU21D;63664;44.868;40.600;2023-03-01T07:44:24;5.64;86.16
75088;HTU21D;63664;44.868;40.600;2023-03-01T07:46:53;5.75;85.90
75088;HTU21D;63664;44.868;40.600;2023-03-01T07:49:22;5.79;85.65
75088;HTU21D;63664;44.868;40.600;2023-03-01T07:51:51;5.79;85.58
75088;HTU21D;63664;44.868;40.600;2023-03-01T07:54:22;5.85;85.58
75088;HTU21D;63664;44.868;40.600;2023-03-01T07:56:48;5.90;85.42
75088;HTU21D;63664;44.868;40.600;2023-03-01T07:59:19;5.96;85.31
75088;HTU21D;63664;44.868;40.600;2023-03-01T08:01:46;5.94;85.19
75088;HTU21D;63664;44.868;40.600;2023-03-01T08:04:12;6.00;85.15
75088;HTU21D;63664;44.868;40.600;2023-03-01T08:06:41;6.06;84.92
75088;HTU21D;63664;44.868;40.600;2023-03-01T08:09:12;6.17;84.87
75088;HTU21D;63664;44.868;40.600;2023-03-01T08:11:38;6.23;84.55
75088;HTU21D;63664;44.868;40.600;2023-03-01T08:14:08;6.23;84.41
75088;HTU21D;63664;44.868;40.600;2023-03-01T08:16:40;6.21;84.48
75088;HTU21D;63664;44.868;40.600;2023-03-01T08:19:10;6.17;84.55
75088;HTU21D;63664;44.868;40.600;2023-03-01T08:21:38;6.16;84.51
75088;HTU21D;63664;44.868;40.600;2023-03-01T08:24:08;6.21;84.54
75088;HTU21D;63664;44.868;40.600;2023-03-01T08:26:38;6.30;84.36
75088;HTU21D;63664;44.868;40.600;2023-03-01T08:29:04;6.37;84.26
75088;HTU21D;63664;44.868;40.600;2023-03-01T08:31:33;6.52;84.08
75088;HTU21D;63664;44.868;40.600;2023-03-01T08:34:04;6.67;83.74
75088;HTU21D;63664;44.868;40.600;2023-03-01T08:36:39;6.74;83.41
75088;HTU21D;63664;44.868;40.600;2023-03-01T08:39:07;6.78;83.32
75088;HTU21D;63664;44.868;40.600;2023-03-01T08:41:39;6.72;83.17
75088;HTU21D;63664;44.868;40.600;2023-03-01T08:44:06;6.70;83.28
75088;HTU21D;63664;44.868;40.600;2023-03-01T08:46:37;6.64;83.24
75088;HTU21D;63664;44.868;40.600;2023-03-01T08:49:15;6.59;83.15
75088;HTU21D;63664;44.868;40.600;2023-03-01T08:51:43;6.65;83.28
75088;HTU21D;63664;44.868;40.600;2023-03-01T08:54:15;6.74;83.08
75088;HTU21D;63664;44.868;40.600;2023-03-01T08:56:44;6.79;82.86
75088;HTU21D;63664;44.868;40.600;2023-03-01T08:59:14;6.80;82.73
75088;HTU21D;63664;44.868;40.600;2023-03-01T09:01:41;6.86;82.67
75088;HTU21D;63664;44.868;40.600;2023-03-01T09:04:12;6.93;82.52
75088;HTU21D;63664;44.868;40.600;2023-03-01T09:06:38;6.89;82.17
75088;HTU21D;63664;44.868;40.600;2023-03-01T09:09:14;6.90;82.28
75088;HTU21D;63664;44.868;40.600;2023-03-01T09:11:43;6.98;82.03
75088;HTU21D;63664;44.868;40.600;2023-03-01T09:14:12;7.08;81.99
75088;HTU21D;63664;44.868;40.600;2023-03-01T09:16:39;7.20;81.79
75088;HTU21D;63664;44.868;40.600;2023-03-01T09:19:08;7.37;81.49
75088;HTU21D;63664;44.868;40.600;2023-03-01T09:21:37;7.46;81.17
75088;HTU21D;63664;44.868;40.600;2023-03-01T09:24:04;7.48;80.95
75088;HTU21D;63664;44.868;40.600;2023-03-01T09:26:30;7.48;80.93
75088;HTU21D;63664;44.868;40.600;2023-03-01T09:29:02;7.50;80.81
75088;HTU21D;63664;44.868;40.600;2023-03-01T09:31:31;7.47;80.56
75088;HTU21D;63664;44.868;40.600;2023-03-01T09:33:57;7.43;80.72
75088;HTU21D;63664;44.868;40.600;2023-03-01T09:36:24;7.44;80.55
75088;HTU21D;63664;44.868;40.600;2023-03-01T09:38:56;7.46;80.39
75088;HTU21D;63664;44.868;40.600;2023-03-01T09:46:51;7.44;79.88
75088;HTU21D;63664;44.868;40.600;2023-03-01T09:49:27;7.38;79.97
75088;HTU21D;63664;44.868;40.600;2023-03-01T09:54:55;7.40;80.05
75088;HTU21D;63664;44.868;40.600;2023-03-01T09:57:39;7.49;80.06
75088;HTU21D;63664;44.868;40.600;2023-03-01T10:08:58;7.64;79.21
75088;HTU21D;63664;44.868;40.600;2023-03-01T10:11:32;7.64;79.15
75088;HTU21D;63664;44.868;40.600;2023-03-01T10:14:13;7.69;78.99
75088;HTU21D;63664;44.868;40.600;2023-03-01T10:16:58;7.67;78.82
75088;HTU21D;63664;44.868;40.600;2023-03-01T10:24:40;7.75;78.69
75088;HTU21D;63664;44.868;40.600;2023-03-01T10:27:59;7.86;78.63
75088;HTU21D;63664;44.868;40.600;2023-03-01T10:32:47;7.92;77.94
75088;HTU21D;63664;44.868;40.600;2023-03-01T10:35:21;7.94;78.14
75088;HTU21D;63664;44.868;40.600;2023-03-01T10:38:11;8.07;78.01
75088;HTU21D;63664;44.868;40.600;2023-03-01T10:41:00;8.08;77.66
75088;HTU21D;63664;44.868;40.600;2023-03-01T10:43:47;8.07;76.82
75088;HTU21D;63664;44.868;40.600;2023-03-01T10:49:17;8.05;77.18
75088;HTU21D;63664;44.868;40.600;2023-03-01T10:51:47;8.13;76.98
75088;HTU21D;63664;44.868;40.600;2023-03-01T10:56:51;8.13;76.67
75088;HTU21D;63664;44.868;40.600;2023-03-01T10:59:25;8.17;76.54
75088;HTU21D;63664;44.868;40.600;2023-03-01T11:02:29;8.23;76.32
75088;HTU21D;63664;44.868;40.600;2023-03-01T11:05:20;8.24;75.95
75088;HTU21D;63664;44.868;40.600;2023-03-01T11:07:52;8.19;75.50
75088;HTU21D;63664;44.868;40.600;2023-03-01T11:10:25;8.17;75.50
75088;HTU21D;63664;44.868;40.600;2023-03-01T11:12:53;8.19;75.14
75088;HTU21D;63664;44.868;40.600;2023-03-01T11:15:35;8.18;74.96
75088;HTU21D;63664;44.868;40.600;2023-03-01T11:18:04;8.15;74.81
75088;HTU21D;63664;44.868;40.600;2023-03-01T11:20:35;8.17;74.39
75088;HTU21D;63664;44.868;40.600;2023-03-01T11:23:24;8.16;74.09
75088;HTU21D;63664;44.868;40.600;2023-03-01T11:25:59;8.13;74.10
75088;HTU21D;63664;44.868;40.600;2023-03-01T11:28:31;8.12;73.92
75088;HTU21D;63664;44.868;40.600;2023-03-01T11:31:03;8.09;74.01
75088;HTU21D;63664;44.868;40.600;2023-03-01T11:33:50;8.11;73.93
75088;HTU21D;63664;44.868;40.600;2023-03-01T11:42:18;8.06;73.28
75088;HTU21D;63664;44.868;40.600;2023-03-01T11:44:49;8.05;73.29
75088;HTU21D;63664;44.868;40.600;2023-03-01T11:47:51;8.02;72.74
75088;HTU21D;63664;44.868;40.600;2023-03-01T11:55:43;8.17;72.62
75088;HTU21D;63664;44.868;40.600;2023-03-01T12:15:51;8.18;70.64
75088;HTU21D;63664;44.868;40.600;2023-03-01T12:21:12;8.32;69.90
75088;HTU21D;63664;44.868;40.600;2023-03-01T12:24:00;8.37;70.33
75088;HTU21D;63664;44.868;40.600;2023-03-01T12:26:59;8.38;69.59
75088;HTU21D;63664;44.868;40.600;2023-03-01T12:32:42;8.36;70.10
75088;HTU21D;63664;44.868;40.600;2023-03-01T12:40:46;8.33;70.53
75088;HTU21D;63664;44.868;40.600;2023-03-01T12:49:13;8.08;70.88
75088;HTU21D;63664;44.868;40.600;2023-03-01T12:52:01;8.01;71.15
75088;HTU21D;63664;44.868;40.600;2023-03-01T12:54:33;8.05;71.31
75088;HTU21D;63664;44.868;40.600;2023-03-01T12:57:29;8.02;71.16
75088;HTU21D;63664;44.868;40.600;2023-03-01T13:00:32;7.96;71.32
75088;HTU21D;63664;44.868;40.600;2023-03-01T13:03:16;7.87;71.56
75088;HTU21D;63664;44.868;40.600;2023-03-01T13:06:08;7.82;71.86
75088;HTU21D;63664;44.868;40.600;2023-03-01T13:08:42;7.82;72.00
75088;HTU21D;63664;44.868;40.600;2023-03-01T13:11:19;7.81;72.15
75088;HTU21D;63664;44.868;40.600;2023-03-01T13:13:49;7.79;72.12
75088;HTU21D;63664;44.868;40.600;2023-03-01T13:18:46;7.65;72.51
75088;HTU21D;63664;44.868;40.600;2023-03-01T13:21:30;7.63;72.67
75088;HTU21D;63664;44.868;40.600;2023-03-01T13:23:56;7.63;72.70
75088;HTU21D;63664;44.868;40.600;2023-03-01T13:26:23;7.63;72.67
75088;HTU21D;63664;44.868;40.600;2023-03-01T13:28:54;7.60;72.67
75088;HTU21D;63664;44.868;40.600;2023-03-01T13:33:55;7.55;72.83
75088;HTU21D;63664;44.868;40.600;2023-03-01T13:44:37;7.48;72.74
75088;HTU21D;63664;44.868;40.600;2023-03-01T13:49:56;7.35;72.92
75088;HTU21D;63664;44.868;40.600;2023-03-01T13:53:04;7.35;72.83
75088;HTU21D;63664;44.868;40.600;2023-03-01T13:55:46;7.33;72.71
75088;HTU21D;63664;44.868;40.600;2023-03-01T13:58:33;7.25;72.81
75088;HTU21D;63664;44.868;40.600;2023-03-01T14:01:42;7.19;72.64
75088;HTU21D;63664;44.868;40.600;2023-03-01T14:04:25;7.14;72.88
75088;HTU21D;63664;44.868;40.600;2023-03-01T14:07:12;7.05;72.85
75088;HTU21D;63664;44.868;40.600;2023-03-01T14:09:42;7.04;72.99
75088;HTU21D;63664;44.868;40.600;2023-03-01T14:15:33;6.99;72.87
75088;HTU21D;63664;44.868;40.600;2023-03-01T14:18:57;6.99;72.77
75088;HTU21D;63664;44.868;40.600;2023-03-01T14:21:18;6.94;72.69
75088;HTU21D;63664;44.868;40.600;2023-03-01T14:23:44;6.91;72.77
75088;HTU21D;63664;44.868;40.600;2023-03-01T14:26:12;6.89;72.64
75088;HTU21D;63664;44.868;40.600;2023-03-01T14:28:39;6.87;72.60
75088;HTU21D;63664;44.868;40.600;2023-03-01T14:31:38;6.82;72.59
75088;HTU21D;63664;44.868;40.600;2023-03-01T14:34:05;6.76;72.58
75088;HTU21D;63664;44.868;40.600;2023-03-01T14:36:33;6.72;72.48
75088;HTU21D;63664;44.868;40.600;2023-03-01T14:39:00;6.69;72.60
75088;HTU21D;63664;44.868;40.600;2023-03-01T14:41:35;6.67;72.57
75088;HTU21D;63664;44.868;40.600;2023-03-01T14:44:11;6.67;72.53
75088;HTU21D;63664;44.868;40.600;2023-03-01T14:46:45;6.65;72.51
75088;HTU21D;63664;44.868;40.600;2023-03-01T14:49:17;6.61;72.57
75088;HTU21D;63664;44.868;40.600;2023-03-01T14:54:32;6.53;72.55
75088;HTU21D;63664;44.868;40.600;2023-03-01T14:57:15;6.46;72.59
75088;HTU21D;63664;44.868;40.600;2023-03-01T14:59:44;6.43;72.67
75088;HTU21D;63664;44.868;40.600;2023-03-01T15:02:21;6.38;72.71
75088;HTU21D;63664;44.868;40.600;2023-03-01T15:04:54;6.31;72.73
75088;HTU21D;63664;44.868;40.600;2023-03-01T15:07:30;6.27;72.60
75088;HTU21D;63664;44.868;40.600;2023-03-01T15:10:02;6.21;72.62
75088;HTU21D;63664;44.868;40.600;2023-03-01T15:12:39;6.15;72.66
75088;HTU21D;63664;44.868;40.600;2023-03-01T15:15:36;6.11;72.60
75088;HTU21D;63664;44.868;40.600;2023-03-01T15:18:17;6.07;72.48
75088;HTU21D;63664;44.868;40.600;2023-03-01T15:20:48;6.00;72.52
75088;HTU21D;63664;44.868;40.600;2023-03-01T15:23:25;5.94;72.29
75088;HTU21D;63664;44.868;40.600;2023-03-01T15:25:53;5.87;72.37
75088;HTU21D;63664;44.868;40.600;2023-03-01T15:28:33;5.83;72.36
75088;HTU21D;63664;44.868;40.600;2023-03-01T15:31:16;5.78;72.20
75088;HTU21D;63664;44.868;40.600;2023-03-01T15:33:44;5.75;72.27
75088;HTU21D;63664;44.868;40.600;2023-03-01T15:39:39;5.61;72.23
75088;HTU21D;63664;44.868;40.600;2023-03-01T15:45:10;5.49;72.28
75088;HTU21D;63664;44.868;40.600;2023-03-01T15:47:39;5.45;72.34
75088;HTU21D;63664;44.868;40.600;2023-03-01T15:50:19;5.39;72.41
75088;HTU21D;63664;44.868;40.600;2023-03-01T15:52:51;5.36;72.29
75088;HTU21D;63664;44.868;40.600;2023-03-01T15:55:25;5.30;72.37
75088;HTU21D;63664;44.868;40.600;2023-03-01T15:58:17;5.26;72.45
75088;HTU21D;63664;44.868;40.600;2023-03-01T16:00:46;5.23;72.44
75088;HTU21D;63664;44.868;40.600;2023-03-01T16:03:15;5.18;72.48
75088;HTU21D;63664;44.868;40.600;2023-03-01T16:05:49;5.17;72.51
75088;HTU21D;63664;44.868;40.600;2023-03-01T16:08:16;5.13;72.45
75088;HTU21D;63664;44.868;40.600;2023-03-01T16:10:48;5.09;72.45
75088;HTU21D;63664;44.868;40.600;2023-03-01T16:13:17;5.05;72.33
75088;HTU21D;63664;44.868;40.600;2023-03-01T16:15:46;5.02;72.45
75088;HTU21D;63664;44.868;40.600;2023-03-01T16:18:18;5.00;72.39
75088;HTU21D;63664;44.868;40.600;2023-03-01T16:20:44;4.96;72.39
75088;HTU21D;63664;44.868;40.600;2023-03-01T16:23:11;4.92;72.39
75088;HTU21D;63664;44.868;40.600;2023-03-01T16:25:40;4.92;72.36
75088;HTU21D;63664;44.868;40.600;2023-03-01T16:28:07;4.89;72.37
75088;HTU21D;63664;44.868;40.600;2023-03-01T16:30:38;4.87;72.37
75088;HTU21D;63664;44.868;40.600;2023-03-01T16:33:10;4.84;72.31
75088;HTU21D;63664;44.868;40.600;2023-03-01T16:35:40;4.83;72.29
75088;HTU21D;63664;44.868;40.600;2023-03-01T16:38:06;4.81;72.23
75088;HTU21D;63664;44.868;40.600;2023-03-01T16:40:35;4.80;72.24
75088;HTU21D;63664;44.868;40.600;2023-03-01T16:43:09;4.80;72.21
75088;HTU21D;63664;44.868;40.600;2023-03-01T16:45:42;4.79;72.13
75088;HTU21D;63664;44.868;40.600;2023-03-01T16:48:13;4.76;72.10
75088;HTU21D;63664;44.868;40.600;2023-03-01T16:50:42;4.73;72.08
75088;HTU21D;63664;44.868;40.600;2023-03-01T16:53:11;4.72;72.10
75088;HTU21D;63664;44.868;40.600;2023-03-01T16:55:37;4.68;72.06
75088;HTU21D;63664;44.868;40.600;2023-03-01T16:58:11;4.69;72.01
75088;HTU21D;63664;44.868;40.600;2023-03-01T17:00:40;4.68;71.96
75088;HTU21D;63664;44.868;40.600;2023-03-01T17:03:06;4.67;71.90
75088;HTU21D;63664;44.868;40.600;2023-03-01T17:05:35;4.65;71.88
75088;HTU21D;63664;44.868;40.600;2023-03-01T17:08:01;4.65;71.90
75088;HTU21D;63664;44.868;40.600;2023-03-01T17:10:30;4.65;71.83
75088;HTU21D;63664;44.868;40.600;2023-03-01T17:12:58;4.61;71.84
75088;HTU21D;63664;44.868;40.600;2023-03-01T17:15:25;4.61;71.84
75088;HTU21D;63664;44.868;40.600;2023-03-01T17:17:51;4.60;71.78
75088;HTU21D;63664;44.868;40.600;2023-03-01T17:20:22;4.58;71.81
75088;HTU21D;63664;44.868;40.600;2023-03-01T17:22:51;4.58;71.77
75088;HTU21D;63664;44.868;40.600;2023-03-01T17:25:20;4.56;71.67
75088;HTU21D;63664;44.868;40.600;2023-03-01T17:27:47;4.51;71.63
75088;HTU21D;63664;44.868;40.600;2023-03-01T17:30:14;4.47;71.77
75088;HTU21D;63664;44.868;40.600;2023-03-01T17:32:44;4.46;71.55
75088;HTU21D;63664;44.868;40.600;2023-03-01T17:35:12;4.42;71.73
75088;HTU21D;63664;44.868;40.600;2023-03-01T17:37:39;4.39;71.69
75088;HTU21D;63664;44.868;40.600;2023-03-01T17:40:12;4.34;71.69